sensor_id;sensor_type;location;lat;lon;timestamp;P1;durP1;ratioP1;P2;durP2;ratioP2
48199;SDS011;33990;44.602;10.976;2022-12-07T00:01:33;10.77;;;8.65;;
48199;SDS011;33990;44.602;10.976;2022-12-07T00:04:03;11.82;;;9.25;;
48199;SDS011;33990;44.602;10.976;2022-12-07T00:06:32;11.02;;;8.98;;
48199;SDS011;33990;44.602;10.976;2022-12-07T00:09:04;11.70;;;8.87;;
48199;SDS011;33990;44.602;10.976;2022-12-07T00:11:33;13.65;;;9.93;;
48199;SDS011;33990;44.602;10.976;2022-12-07T00:14:02;11.00;;;8.90;;
48199;SDS011;33990;44.602;10.976;2022-12-07T00:16:32;12.75;;;8.98;;
48199;SDS011;33990;44.602;10.976;2022-12-07T00:19:00;11.07;;;9.02;;
48199;SDS011;33990;44.602;10.976;2022-12-07T00:21:29;10.60;;;9.15;;
48199;SDS011;33990;44.602;10.976;2022-12-07T00:23:59;12.02;;;8.68;;
48199;SDS011;33990;44.602;10.976;2022-12-07T00:26:29;11.63;;;9.15;;
48199;SDS011;33990;44.602;10.976;2022-12-07T00:29:02;9.48;;;8.38;;
48199;SDS011;33990;44.602;10.976;2022-12-07T00:31:32;11.60;;;9.02;;
48199;SDS011;33990;44.602;10.976;2022-12-07T00:34:02;11.40;;;9.32;;
48199;SDS011;33990;44.602;10.976;2022-12-07T00:36:29;10.98;;;9.63;;
48199;SDS011;33990;44.602;10.976;2022-12-07T00:38:58;10.93;;;9.07;;
48199;SDS011;33990;44.602;10.976;2022-12-07T00:41:26;12.77;;;9.65;;
48199;SDS011;33990;44.602;10.976;2022-12-07T00:43:54;12.25;;;9.48;;
48199;SDS011;33990;44.602;10.976;2022-12-07T00:46:23;11.35;;;9.57;;
48199;SDS011;33990;44.602;10.976;2022-12-07T00:48:52;12.25;;;9.10;;
48199;SDS011;33990;44.602;10.976;2022-12-07T00:51:21;12.60;;;9.07;;
48199;SDS011;33990;44.602;10.976;2022-12-07T00:53:50;11.00;;;8.40;;
48199;SDS011;33990;44.602;10.976;2022-12-07T00:56:19;10.75;;;8.73;;
48199;SDS011;33990;44.602;10.976;2022-12-07T00:58:52;11.00;;;8.90;;
48199;SDS011;33990;44.602;10.976;2022-12-07T01:01:20;11.02;;;9.32;;
48199;SDS011;33990;44.602;10.976;2022-12-07T01:03:49;9.75;;;8.73;;
48199;SDS011;33990;44.602;10.976;2022-12-07T01:06:17;11.75;;;9.38;;
48199;SDS011;33990;44.602;10.976;2022-12-07T01:08:45;11.43;;;9.18;;
48199;SDS011;33990;44.602;10.976;2022-12-07T01:11:14;10.13;;;8.70;;
48199;SDS011;33990;44.602;10.976;2022-12-07T01:13:44;11.75;;;10.18;;
48199;SDS011;33990;44.602;10.976;2022-12-07T01:16:13;9.45;;;8.35;;
48199;SDS011;33990;44.602;10.976;2022-12-07T01:18:45;10.07;;;8.55;;
48199;SDS011;33990;44.602;10.976;2022-12-07T01:21:15;12.30;;;10.30;;
48199;SDS011;33990;44.602;10.976;2022-12-07T01:23:44;12.32;;;9.75;;
48199;SDS011;33990;44.602;10.976;2022-12-07T01:26:12;11.77;;;9.88;;
48199;SDS011;33990;44.602;10.976;2022-12-07T01:28:42;10.63;;;8.75;;
48199;SDS011;33990;44.602;10.976;2022-12-07T01:31:11;10.68;;;9.00;;
48199;SDS011;33990;44.602;10.976;2022-12-07T01:33:42;13.63;;;11.13;;
48199;SDS011;33990;44.602;10.976;2022-12-07T01:36:21;14.25;;;11.02;;
48199;SDS011;33990;44.602;10.976;2022-12-07T01:38:51;13.00;;;10.18;;
48199;SDS011;33990;44.602;10.976;2022-12-07T01:41:26;13.23;;;10.50;;
48199;SDS011;33990;44.602;10.976;2022-12-07T01:46:57;12.60;;;10.35;;
48199;SDS011;33990;44.602;10.976;2022-12-07T01:49:33;11.85;;;10.00;;
48199;SDS011;33990;44.602;10.976;2022-12-07T01:54:32;12.88;;;10.70;;
48199;SDS011;33990;44.602;10.976;2022-12-07T01:57:00;11.13;;;9.90;;
48199;SDS011;33990;44.602;10.976;2022-12-07T01:59:28;12.32;;;10.43;;
48199;SDS011;33990;44.602;10.976;2022-12-07T02:01:55;12.40;;;10.18;;
48199;SDS011;33990;44.602;10.976;2022-12-07T02:04:23;13.30;;;10.48;;
48199;SDS011;33990;44.602;10.976;2022-12-07T02:06:51;13.32;;;10.88;;
48199;SDS011;33990;44.602;10.976;2022-12-07T02:09:20;13.43;;;10.60;;
48199;SDS011;33990;44.602;10.976;2022-12-07T02:11:48;13.77;;;10.70;;
48199;SDS011;33990;44.602;10.976;2022-12-07T02:14:16;12.40;;;10.75;;
48199;SDS011;33990;44.602;10.976;2022-12-07T02:16:47;13.57;;;10.38;;
48199;SDS011;33990;44.602;10.976;2022-12-07T02:21:59;13.93;;;10.93;;
48199;SDS011;33990;44.602;10.976;2022-12-07T02:27:37;14.77;;;11.52;;
48199;SDS011;33990;44.602;10.976;2022-12-07T02:38:28;13.32;;;11.07;;
48199;SDS011;33990;44.602;10.976;2022-12-07T02:43:44;15.30;;;11.32;;
48199;SDS011;33990;44.602;10.976;2022-12-07T02:46:35;13.98;;;11.52;;
48199;SDS011;33990;44.602;10.976;2022-12-07T02:49:08;12.90;;;10.48;;
48199;SDS011;33990;44.602;10.976;2022-12-07T02:51:40;14.23;;;11.55;;
48199;SDS011;33990;44.602;10.976;2022-12-07T02:59:49;12.30;;;10.52;;
48199;SDS011;33990;44.602;10.976;2022-12-07T03:07:51;11.52;;;10.18;;
48199;SDS011;33990;44.602;10.976;2022-12-07T03:10:39;14.80;;;10.35;;
48199;SDS011;33990;44.602;10.976;2022-12-07T03:18:28;13.57;;;10.63;;
48199;SDS011;33990;44.602;10.976;2022-12-07T03:20:58;12.60;;;10.40;;
48199;SDS011;33990;44.602;10.976;2022-12-07T03:23:32;13.10;;;11.23;;
48199;SDS011;33990;44.602;10.976;2022-12-07T03:26:02;13.68;;;11.75;;
48199;SDS011;33990;44.602;10.976;2022-12-07T03:28:33;15.27;;;12.07;;
48199;SDS011;33990;44.602;10.976;2022-12-07T03:31:08;14.25;;;10.98;;
48199;SDS011;33990;44.602;10.976;2022-12-07T03:39:34;12.65;;;10.27;;
48199;SDS011;33990;44.602;10.976;2022-12-07T03:42:08;15.13;;;11.40;;
48199;SDS011;33990;44.602;10.976;2022-12-07T03:44:38;13.93;;;11.02;;
48199;SDS011;33990;44.602;10.976;2022-12-07T03:52:35;15.57;;;11.48;;
48199;SDS011;33990;44.602;10.976;2022-12-07T03:55:28;13.68;;;11.23;;
48199;SDS011;33990;44.602;10.976;2022-12-07T03:57:59;13.75;;;11.45;;
48199;SDS011;33990;44.602;10.976;2022-12-07T04:00:36;16.25;;;12.10;;
48199;SDS011;33990;44.602;10.976;2022-12-07T04:03:03;18.40;;;12.57;;
48199;SDS011;33990;44.602;10.976;2022-12-07T04:05:31;16.50;;;11.95;;
48199;SDS011;33990;44.602;10.976;2022-12-07T04:07:58;14.60;;;11.75;;
48199;SDS011;33990;44.602;10.976;2022-12-07T04:10:26;18.02;;;12.38;;
48199;SDS011;33990;44.602;10.976;2022-12-07T04:12:53;15.93;;;12.50;;
48199;SDS011;33990;44.602;10.976;2022-12-07T04:15:22;17.77;;;12.88;;
48199;SDS011;33990;44.602;10.976;2022-12-07T04:17:49;18.05;;;12.23;;
48199;SDS011;33990;44.602;10.976;2022-12-07T04:20:17;16.90;;;12.30;;
48199;SDS011;33990;44.602;10.976;2022-12-07T04:22:45;17.05;;;12.35;;
48199;SDS011;33990;44.602;10.976;2022-12-07T04:25:12;18.10;;;12.20;;
48199;SDS011;33990;44.602;10.976;2022-12-07T04:27:39;16.73;;;11.65;;
48199;SDS011;33990;44.602;10.976;2022-12-07T04:30:07;15.93;;;12.45;;
48199;SDS011;33990;44.602;10.976;2022-12-07T04:32:34;19.63;;;13.55;;
48199;SDS011;33990;44.602;10.976;2022-12-07T04:35:02;18.33;;;13.10;;
48199;SDS011;33990;44.602;10.976;2022-12-07T04:37:30;13.95;;;11.00;;
48199;SDS011;33990;44.602;10.976;2022-12-07T04:39:57;16.02;;;11.90;;
48199;SDS011;33990;44.602;10.976;2022-12-07T04:42:25;19.65;;;12.43;;
48199;SDS011;33990;44.602;10.976;2022-12-07T04:44:52;18.42;;;12.43;;
48199;SDS011;33990;44.602;10.976;2022-12-07T04:47:20;15.30;;;11.45;;
48199;SDS011;33990;44.602;10.976;2022-12-07T04:49:47;16.35;;;12.25;;
48199;SDS011;33990;44.602;10.976;2022-12-07T04:52:14;16.67;;;13.52;;
48199;SDS011;33990;44.602;10.976;2022-12-07T04:54:42;18.80;;;13.30;;
48199;SDS011;33990;44.602;10.976;2022-12-07T04:57:09;14.02;;;11.32;;
48199;SDS011;33990;44.602;10.976;2022-12-07T04:59:36;22.65;;;12.93;;
48199;SDS011;33990;44.602;10.976;2022-12-07T05:02:11;18.95;;;12.85;;
48199;SDS011;33990;44.602;10.976;2022-12-07T05:04:39;18.17;;;13.77;;
48199;SDS011;33990;44.602;10.976;2022-12-07T05:07:06;17.30;;;12.60;;
48199;SDS011;33990;44.602;10.976;2022-12-07T05:09:33;19.48;;;12.88;;
48199;SDS011;33990;44.602;10.976;2022-12-07T05:12:01;17.75;;;12.50;;
48199;SDS011;33990;44.602;10.976;2022-12-07T05:14:28;18.48;;;13.60;;
48199;SDS011;33990;44.602;10.976;2022-12-07T05:16:56;19.95;;;13.65;;
48199;SDS011;33990;44.602;10.976;2022-12-07T05:19:23;18.38;;;13.60;;
48199;SDS011;33990;44.602;10.976;2022-12-07T05:21:50;19.35;;;14.07;;
48199;SDS011;33990;44.602;10.976;2022-12-07T05:24:18;17.58;;;12.55;;
48199;SDS011;33990;44.602;10.976;2022-12-07T05:26:45;19.30;;;14.70;;
48199;SDS011;33990;44.602;10.976;2022-12-07T05:29:13;18.80;;;13.85;;
48199;SDS011;33990;44.602;10.976;2022-12-07T05:31:42;15.98;;;12.85;;
48199;SDS011;33990;44.602;10.976;2022-12-07T05:34:11;17.95;;;12.63;;
48199;SDS011;33990;44.602;10.976;2022-12-07T05:36:39;16.10;;;12.30;;
48199;SDS011;33990;44.602;10.976;2022-12-07T05:39:06;16.95;;;12.75;;
48199;SDS011;33990;44.602;10.976;2022-12-07T05:41:34;17.23;;;12.45;;
48199;SDS011;33990;44.602;10.976;2022-12-07T05:44:20;15.60;;;12.20;;
48199;SDS011;33990;44.602;10.976;2022-12-07T05:46:47;18.60;;;13.23;;
48199;SDS011;33990;44.602;10.976;2022-12-07T05:49:15;17.80;;;13.68;;
48199;SDS011;33990;44.602;10.976;2022-12-07T05:51:42;18.48;;;12.90;;
48199;SDS011;33990;44.602;10.976;2022-12-07T05:54:09;14.85;;;11.77;;
48199;SDS011;33990;44.602;10.976;2022-12-07T05:56:37;18.67;;;12.90;;
48199;SDS011;33990;44.602;10.976;2022-12-07T05:59:04;17.00;;;12.88;;
48199;SDS011;33990;44.602;10.976;2022-12-07T06:01:51;18.10;;;13.25;;
48199;SDS011;33990;44.602;10.976;2022-12-07T06:04:24;18.50;;;12.73;;
48199;SDS011;33990;44.602;10.976;2022-12-07T06:06:53;15.93;;;11.88;;
48199;SDS011;33990;44.602;10.976;2022-12-07T06:09:21;19.30;;;12.32;;
48199;SDS011;33990;44.602;10.976;2022-12-07T06:11:49;19.05;;;12.07;;
48199;SDS011;33990;44.602;10.976;2022-12-07T06:14:36;17.70;;;11.65;;
48199;SDS011;33990;44.602;10.976;2022-12-07T06:17:03;17.70;;;12.07;;
48199;SDS011;33990;44.602;10.976;2022-12-07T06:19:31;14.75;;;11.60;;
48199;SDS011;33990;44.602;10.976;2022-12-07T06:21:59;16.90;;;12.80;;
48199;SDS011;33990;44.602;10.976;2022-12-07T06:24:26;18.25;;;11.57;;
48199;SDS011;33990;44.602;10.976;2022-12-07T06:26:54;17.38;;;12.88;;
48199;SDS011;33990;44.602;10.976;2022-12-07T06:29:21;15.77;;;11.52;;
48199;SDS011;33990;44.602;10.976;2022-12-07T06:31:49;15.35;;;11.00;;
48199;SDS011;33990;44.602;10.976;2022-12-07T06:34:17;15.80;;;10.57;;
48199;SDS011;33990;44.602;10.976;2022-12-07T06:36:46;14.40;;;10.60;;
48199;SDS011;33990;44.602;10.976;2022-12-07T06:39:18;15.55;;;10.48;;
48199;SDS011;33990;44.602;10.976;2022-12-07T06:41:46;12.98;;;10.27;;
48199;SDS011;33990;44.602;10.976;2022-12-07T06:44:14;15.57;;;10.82;;
48199;SDS011;33990;44.602;10.976;2022-12-07T06:46:41;15.98;;;10.80;;
48199;SDS011;33990;44.602;10.976;2022-12-07T06:49:08;13.57;;;10.23;;
48199;SDS011;33990;44.602;10.976;2022-12-07T06:51:36;15.05;;;10.70;;
48199;SDS011;33990;44.602;10.976;2022-12-07T06:54:11;11.38;;;9.52;;
48199;SDS011;33990;44.602;10.976;2022-12-07T06:56:39;14.38;;;10.50;;
48199;SDS011;33990;44.602;10.976;2022-12-07T06:59:07;12.85;;;8.80;;
48199;SDS011;33990;44.602;10.976;2022-12-07T07:01:34;13.65;;;10.30;;
48199;SDS011;33990;44.602;10.976;2022-12-07T07:04:02;11.98;;;9.45;;
48199;SDS011;33990;44.602;10.976;2022-12-07T07:06:30;12.88;;;9.88;;
48199;SDS011;33990;44.602;10.976;2022-12-07T07:08:58;11.48;;;8.93;;
48199;SDS011;33990;44.602;10.976;2022-12-07T07:11:25;11.32;;;9.38;;
48199;SDS011;33990;44.602;10.976;2022-12-07T07:13:52;11.02;;;8.38;;
48199;SDS011;33990;44.602;10.976;2022-12-07T07:16:20;11.98;;;8.50;;
48199;SDS011;33990;44.602;10.976;2022-12-07T07:18:48;11.77;;;9.50;;
48199;SDS011;33990;44.602;10.976;2022-12-07T07:21:15;13.63;;;9.38;;
48199;SDS011;33990;44.602;10.976;2022-12-07T07:23:42;10.65;;;8.48;;
48199;SDS011;33990;44.602;10.976;2022-12-07T07:26:10;12.93;;;8.85;;
48199;SDS011;33990;44.602;10.976;2022-12-07T07:28:37;13.32;;;8.18;;
48199;SDS011;33990;44.602;10.976;2022-12-07T07:31:05;11.52;;;8.80;;
48199;SDS011;33990;44.602;10.976;2022-12-07T07:33:32;11.40;;;9.00;;
48199;SDS011;33990;44.602;10.976;2022-12-07T07:36:00;13.02;;;8.75;;
48199;SDS011;33990;44.602;10.976;2022-12-07T07:38:27;11.52;;;7.85;;
48199;SDS011;33990;44.602;10.976;2022-12-07T07:40:55;14.70;;;8.70;;
48199;SDS011;33990;44.602;10.976;2022-12-07T07:43:22;13.68;;;8.45;;
48199;SDS011;33990;44.602;10.976;2022-12-07T07:45:49;12.57;;;8.65;;
48199;SDS011;33990;44.602;10.976;2022-12-07T07:48:17;11.65;;;8.68;;
48199;SDS011;33990;44.602;10.976;2022-12-07T07:50:45;14.50;;;8.85;;
48199;SDS011;33990;44.602;10.976;2022-12-07T07:53:12;14.07;;;9.10;;
48199;SDS011;33990;44.602;10.976;2022-12-07T07:55:39;13.65;;;11.30;;
48199;SDS011;33990;44.602;10.976;2022-12-07T07:58:07;16.98;;;12.38;;
48199;SDS011;33990;44.602;10.976;2022-12-07T08:00:34;13.35;;;10.48;;
48199;SDS011;33990;44.602;10.976;2022-12-07T08:03:02;13.93;;;9.43;;
48199;SDS011;33990;44.602;10.976;2022-12-07T08:05:29;12.55;;;9.23;;
48199;SDS011;33990;44.602;10.976;2022-12-07T08:07:57;11.55;;;8.40;;
48199;SDS011;33990;44.602;10.976;2022-12-07T08:10:24;9.90;;;8.60;;
48199;SDS011;33990;44.602;10.976;2022-12-07T08:12:52;10.38;;;7.40;;
48199;SDS011;33990;44.602;10.976;2022-12-07T08:15:38;14.35;;;8.23;;
48199;SDS011;33990;44.602;10.976;2022-12-07T08:18:07;10.80;;;8.48;;
48199;SDS011;33990;44.602;10.976;2022-12-07T08:20:35;11.05;;;8.25;;
48199;SDS011;33990;44.602;10.976;2022-12-07T08:23:05;9.75;;;7.85;;
48199;SDS011;33990;44.602;10.976;2022-12-07T08:25:33;10.48;;;8.20;;
48199;SDS011;33990;44.602;10.976;2022-12-07T08:28:00;8.95;;;7.72;;
48199;SDS011;33990;44.602;10.976;2022-12-07T08:30:28;11.63;;;8.80;;
48199;SDS011;33990;44.602;10.976;2022-12-07T08:32:56;9.68;;;7.80;;
48199;SDS011;33990;44.602;10.976;2022-12-07T08:35:24;14.07;;;9.50;;
48199;SDS011;33990;44.602;10.976;2022-12-07T08:37:52;14.32;;;10.82;;
48199;SDS011;33990;44.602;10.976;2022-12-07T08:40:19;18.23;;;12.73;;
48199;SDS011;33990;44.602;10.976;2022-12-07T08:42:48;15.23;;;12.95;;
48199;SDS011;33990;44.602;10.976;2022-12-07T08:45:17;16.60;;;14.07;;
48199;SDS011;33990;44.602;10.976;2022-12-07T08:48:11;15.60;;;13.98;;
48199;SDS011;33990;44.602;10.976;2022-12-07T08:50:41;16.35;;;14.50;;
48199;SDS011;33990;44.602;10.976;2022-12-07T08:53:15;15.88;;;14.27;;
48199;SDS011;33990;44.602;10.976;2022-12-07T08:55:43;15.38;;;13.73;;
48199;SDS011;33990;44.602;10.976;2022-12-07T08:58:13;18.70;;;16.30;;
48199;SDS011;33990;44.602;10.976;2022-12-07T09:00:40;15.80;;;14.15;;
48199;SDS011;33990;44.602;10.976;2022-12-07T09:03:08;16.50;;;14.80;;
48199;SDS011;33990;44.602;10.976;2022-12-07T09:05:35;16.23;;;13.43;;
48199;SDS011;33990;44.602;10.976;2022-12-07T09:08:03;16.52;;;14.20;;
48199;SDS011;33990;44.602;10.976;2022-12-07T09:10:31;15.40;;;13.52;;
48199;SDS011;33990;44.602;10.976;2022-12-07T09:12:58;16.70;;;12.50;;
48199;SDS011;33990;44.602;10.976;2022-12-07T09:15:28;13.68;;;12.23;;
48199;SDS011;33990;44.602;10.976;2022-12-07T09:17:57;18.52;;;13.13;;
48199;SDS011;33990;44.602;10.976;2022-12-07T09:20:24;14.30;;;12.80;;
48199;SDS011;33990;44.602;10.976;2022-12-07T09:22:54;14.70;;;13.20;;
48199;SDS011;33990;44.602;10.976;2022-12-07T09:25:21;13.38;;;12.00;;
48199;SDS011;33990;44.602;10.976;2022-12-07T09:27:54;14.95;;;13.20;;
48199;SDS011;33990;44.602;10.976;2022-12-07T09:30:22;12.52;;;11.23;;
48199;SDS011;33990;44.602;10.976;2022-12-07T09:32:52;17.23;;;12.90;;
48199;SDS011;33990;44.602;10.976;2022-12-07T09:35:20;16.15;;;13.95;;
48199;SDS011;33990;44.602;10.976;2022-12-07T09:37:48;14.02;;;12.32;;
48199;SDS011;33990;44.602;10.976;2022-12-07T09:40:16;13.05;;;11.23;;
48199;SDS011;33990;44.602;10.976;2022-12-07T09:42:51;12.18;;;9.85;;
48199;SDS011;33990;44.602;10.976;2022-12-07T09:45:34;11.38;;;8.57;;
48199;SDS011;33990;44.602;10.976;2022-12-07T09:48:03;11.32;;;8.63;;
48199;SDS011;33990;44.602;10.976;2022-12-07T09:50:31;10.43;;;8.35;;
48199;SDS011;33990;44.602;10.976;2022-12-07T09:53:09;9.70;;;8.20;;
48199;SDS011;33990;44.602;10.976;2022-12-07T09:58:12;8.25;;;6.97;;
48199;SDS011;33990;44.602;10.976;2022-12-07T10:01:22;11.43;;;7.10;;
48199;SDS011;33990;44.602;10.976;2022-12-07T10:03:50;8.18;;;7.05;;
48199;SDS011;33990;44.602;10.976;2022-12-07T10:06:25;9.38;;;6.60;;
48199;SDS011;33990;44.602;10.976;2022-12-07T10:08:53;8.68;;;7.18;;
48199;SDS011;33990;44.602;10.976;2022-12-07T10:11:20;8.82;;;7.65;;
48199;SDS011;33990;44.602;10.976;2022-12-07T10:13:49;8.65;;;7.32;;
48199;SDS011;33990;44.602;10.976;2022-12-07T10:18:51;7.85;;;7.03;;
48199;SDS011;33990;44.602;10.976;2022-12-07T10:21:23;10.23;;;7.40;;
48199;SDS011;33990;44.602;10.976;2022-12-07T10:26:32;7.93;;;6.90;;
48199;SDS011;33990;44.602;10.976;2022-12-07T10:31:39;8.65;;;7.50;;
48199;SDS011;33990;44.602;10.976;2022-12-07T10:34:15;8.82;;;6.72;;
48199;SDS011;33990;44.602;10.976;2022-12-07T10:36:51;7.13;;;6.43;;
48199;SDS011;33990;44.602;10.976;2022-12-07T10:39:21;10.25;;;7.38;;
48199;SDS011;33990;44.602;10.976;2022-12-07T10:44:25;8.50;;;6.82;;
48199;SDS011;33990;44.602;10.976;2022-12-07T10:50:01;8.13;;;7.22;;
48199;SDS011;33990;44.602;10.976;2022-12-07T11:15:51;7.32;;;5.93;;
48199;SDS011;33990;44.602;10.976;2022-12-07T11:18:35;10.55;;;9.07;;
48199;SDS011;33990;44.602;10.976;2022-12-07T11:21:33;8.18;;;6.75;;
48199;SDS011;33990;44.602;10.976;2022-12-07T11:24:10;10.57;;;6.55;;
48199;SDS011;33990;44.602;10.976;2022-12-07T11:37:42;8.15;;;6.43;;
48199;SDS011;33990;44.602;10.976;2022-12-07T11:40:20;7.15;;;6.35;;
48199;SDS011;33990;44.602;10.976;2022-12-07T11:43:19;6.95;;;5.93;;
48199;SDS011;33990;44.602;10.976;2022-12-07T11:49:19;8.10;;;6.25;;
48199;SDS011;33990;44.602;10.976;2022-12-07T11:51:54;9.37;;;6.53;;
48199;SDS011;33990;44.602;10.976;2022-12-07T11:54:30;8.85;;;6.70;;
48199;SDS011;33990;44.602;10.976;2022-12-07T11:57:03;6.00;;;5.35;;
48199;SDS011;33990;44.602;10.976;2022-12-07T11:59:47;6.93;;;5.85;;
48199;SDS011;33990;44.602;10.976;2022-12-07T12:04:55;6.40;;;5.75;;
48199;SDS011;33990;44.602;10.976;2022-12-07T12:07:29;6.63;;;5.90;;
48199;SDS011;33990;44.602;10.976;2022-12-07T12:10:19;5.80;;;4.97;;
48199;SDS011;33990;44.602;10.976;2022-12-07T12:21:55;10.05;;;7.75;;
48199;SDS011;33990;44.602;10.976;2022-12-07T12:24:28;11.88;;;8.68;;
48199;SDS011;33990;44.602;10.976;2022-12-07T12:27:04;11.93;;;9.48;;
48199;SDS011;33990;44.602;10.976;2022-12-07T12:29:39;13.70;;;10.25;;
48199;SDS011;33990;44.602;10.976;2022-12-07T12:32:20;11.13;;;8.27;;
48199;SDS011;33990;44.602;10.976;2022-12-07T12:35:26;11.50;;;8.82;;
48199;SDS011;33990;44.602;10.976;2022-12-07T12:38:25;11.98;;;8.98;;
48199;SDS011;33990;44.602;10.976;2022-12-07T12:46:56;14.52;;;8.48;;
48199;SDS011;33990;44.602;10.976;2022-12-07T12:51:52;14.55;;;11.13;;
48199;SDS011;33990;44.602;10.976;2022-12-07T12:54:27;14.20;;;10.93;;
48199;SDS011;33990;44.602;10.976;2022-12-07T13:10:20;13.68;;;8.80;;
48199;SDS011;33990;44.602;10.976;2022-12-07T13:20:56;15.07;;;9.60;;
48199;SDS011;33990;44.602;10.976;2022-12-07T13:23:33;14.32;;;9.13;;
48199;SDS011;33990;44.602;10.976;2022-12-07T13:36:55;12.45;;;8.35;;
48199;SDS011;33990;44.602;10.976;2022-12-07T13:39:24;13.82;;;9.77;;
48199;SDS011;33990;44.602;10.976;2022-12-07T13:41:53;12.50;;;8.93;;
48199;SDS011;33990;44.602;10.976;2022-12-07T13:44:24;11.38;;;7.82;;
48199;SDS011;33990;44.602;10.976;2022-12-07T13:46:57;12.25;;;8.13;;
48199;SDS011;33990;44.602;10.976;2022-12-07T13:49:27;12.35;;;7.68;;
48199;SDS011;33990;44.602;10.976;2022-12-07T13:57:40;11.77;;;7.43;;
48199;SDS011;33990;44.602;10.976;2022-12-07T14:00:27;12.18;;;7.07;;
48199;SDS011;33990;44.602;10.976;2022-12-07T14:03:04;11.23;;;7.05;;
48199;SDS011;33990;44.602;10.976;2022-12-07T14:05:41;9.63;;;7.32;;
48199;SDS011;33990;44.602;10.976;2022-12-07T14:10:41;10.45;;;7.22;;
48199;SDS011;33990;44.602;10.976;2022-12-07T14:13:32;11.35;;;7.45;;
48199;SDS011;33990;44.602;10.976;2022-12-07T14:16:03;11.32;;;6.90;;
48199;SDS011;33990;44.602;10.976;2022-12-07T14:18:44;10.43;;;7.00;;
48199;SDS011;33990;44.602;10.976;2022-12-07T14:21:15;9.93;;;6.32;;
48199;SDS011;33990;44.602;10.976;2022-12-07T14:23:45;13.68;;;6.82;;
48199;SDS011;33990;44.602;10.976;2022-12-07T14:26:29;9.20;;;6.85;;
48199;SDS011;33990;44.602;10.976;2022-12-07T14:29:18;9.15;;;6.97;;
48199;SDS011;33990;44.602;10.976;2022-12-07T14:31:49;8.95;;;6.60;;
48199;SDS011;33990;44.602;10.976;2022-12-07T14:34:19;8.05;;;6.15;;
48199;SDS011;33990;44.602;10.976;2022-12-07T14:36:47;10.57;;;7.47;;
48199;SDS011;33990;44.602;10.976;2022-12-07T14:39:15;8.93;;;7.18;;
48199;SDS011;33990;44.602;10.976;2022-12-07T14:41:42;8.27;;;6.50;;
48199;SDS011;33990;44.602;10.976;2022-12-07T14:44:20;9.18;;;6.10;;
48199;SDS011;33990;44.602;10.976;2022-12-07T14:46:54;8.50;;;6.43;;
48199;SDS011;33990;44.602;10.976;2022-12-07T14:49:41;8.43;;;6.63;;
48199;SDS011;33990;44.602;10.976;2022-12-07T14:52:13;7.25;;;6.10;;
48199;SDS011;33990;44.602;10.976;2022-12-07T14:55:12;7.65;;;5.50;;
48199;SDS011;33990;44.602;10.976;2022-12-07T14:58:00;9.38;;;6.72;;
48199;SDS011;33990;44.602;10.976;2022-12-07T15:00:27;12.20;;;7.35;;
48199;SDS011;33990;44.602;10.976;2022-12-07T15:02:56;7.50;;;6.13;;
48199;SDS011;33990;44.602;10.976;2022-12-07T15:05:23;7.07;;;5.97;;
48199;SDS011;33990;44.602;10.976;2022-12-07T15:07:51;8.30;;;6.40;;
48199;SDS011;33990;44.602;10.976;2022-12-07T15:10:20;9.30;;;6.85;;
48199;SDS011;33990;44.602;10.976;2022-12-07T15:12:50;9.93;;;6.63;;
48199;SDS011;33990;44.602;10.976;2022-12-07T15:15:18;7.75;;;6.05;;
48199;SDS011;33990;44.602;10.976;2022-12-07T15:17:45;7.85;;;6.70;;
48199;SDS011;33990;44.602;10.976;2022-12-07T15:20:13;8.68;;;5.90;;
48199;SDS011;33990;44.602;10.976;2022-12-07T15:22:43;9.70;;;6.60;;
48199;SDS011;33990;44.602;10.976;2022-12-07T15:25:14;9.63;;;6.80;;
48199;SDS011;33990;44.602;10.976;2022-12-07T15:27:41;7.82;;;6.47;;
48199;SDS011;33990;44.602;10.976;2022-12-07T15:30:09;9.40;;;6.28;;
48199;SDS011;33990;44.602;10.976;2022-12-07T15:32:38;7.57;;;5.90;;
48199;SDS011;33990;44.602;10.976;2022-12-07T15:35:06;7.15;;;6.15;;
48199;SDS011;33990;44.602;10.976;2022-12-07T15:37:34;6.90;;;6.13;;
48199;SDS011;33990;44.602;10.976;2022-12-07T15:40:01;7.20;;;5.88;;
48199;SDS011;33990;44.602;10.976;2022-12-07T15:42:34;7.20;;;6.07;;
48199;SDS011;33990;44.602;10.976;2022-12-07T15:45:03;8.20;;;6.30;;
48199;SDS011;33990;44.602;10.976;2022-12-07T15:50:24;7.10;;;5.93;;
48199;SDS011;33990;44.602;10.976;2022-12-07T15:52:52;8.02;;;6.25;;
48199;SDS011;33990;44.602;10.976;2022-12-07T15:55:19;7.07;;;5.72;;
48199;SDS011;33990;44.602;10.976;2022-12-07T15:57:46;9.05;;;6.05;;
48199;SDS011;33990;44.602;10.976;2022-12-07T16:00:14;9.70;;;6.70;;
48199;SDS011;33990;44.602;10.976;2022-12-07T16:02:41;8.48;;;6.43;;
48199;SDS011;33990;44.602;10.976;2022-12-07T16:05:09;7.90;;;5.82;;
48199;SDS011;33990;44.602;10.976;2022-12-07T16:07:36;8.15;;;5.88;;
48199;SDS011;33990;44.602;10.976;2022-12-07T16:10:04;6.28;;;5.53;;
48199;SDS011;33990;44.602;10.976;2022-12-07T16:12:32;6.53;;;5.32;;
48199;SDS011;33990;44.602;10.976;2022-12-07T16:14:59;7.43;;;6.30;;
48199;SDS011;33990;44.602;10.976;2022-12-07T16:17:27;8.27;;;6.35;;
48199;SDS011;33990;44.602;10.976;2022-12-07T16:19:55;6.93;;;5.70;;
48199;SDS011;33990;44.602;10.976;2022-12-07T16:22:22;6.65;;;5.47;;
48199;SDS011;33990;44.602;10.976;2022-12-07T16:24:50;6.65;;;5.47;;
48199;SDS011;33990;44.602;10.976;2022-12-07T16:27:17;6.38;;;4.97;;
48199;SDS011;33990;44.602;10.976;2022-12-07T16:29:44;5.95;;;5.15;;
48199;SDS011;33990;44.602;10.976;2022-12-07T16:32:12;7.75;;;5.57;;
48199;SDS011;33990;44.602;10.976;2022-12-07T16:34:39;6.93;;;5.00;;
48199;SDS011;33990;44.602;10.976;2022-12-07T16:37:07;7.07;;;5.53;;
48199;SDS011;33990;44.602;10.976;2022-12-07T16:39:34;7.88;;;6.47;;
48199;SDS011;33990;44.602;10.976;2022-12-07T16:42:01;7.05;;;5.20;;
48199;SDS011;33990;44.602;10.976;2022-12-07T16:44:29;7.43;;;5.55;;
48199;SDS011;33990;44.602;10.976;2022-12-07T16:46:58;6.63;;;5.60;;
48199;SDS011;33990;44.602;10.976;2022-12-07T16:49:27;7.03;;;5.88;;
48199;SDS011;33990;44.602;10.976;2022-12-07T16:51:54;7.50;;;5.95;;
48199;SDS011;33990;44.602;10.976;2022-12-07T16:54:41;6.80;;;5.88;;
48199;SDS011;33990;44.602;10.976;2022-12-07T16:57:10;7.03;;;5.45;;
48199;SDS011;33990;44.602;10.976;2022-12-07T16:59:44;6.55;;;5.68;;
48199;SDS011;33990;44.602;10.976;2022-12-07T17:02:12;9.88;;;6.47;;
48199;SDS011;33990;44.602;10.976;2022-12-07T17:04:39;8.00;;;5.80;;
48199;SDS011;33990;44.602;10.976;2022-12-07T17:07:09;7.82;;;5.90;;
48199;SDS011;33990;44.602;10.976;2022-12-07T17:09:37;7.57;;;6.13;;
48199;SDS011;33990;44.602;10.976;2022-12-07T17:12:04;7.20;;;5.95;;
48199;SDS011;33990;44.602;10.976;2022-12-07T17:14:33;6.88;;;6.00;;
48199;SDS011;33990;44.602;10.976;2022-12-07T17:17:19;6.90;;;5.90;;
48199;SDS011;33990;44.602;10.976;2022-12-07T17:19:46;6.57;;;5.88;;
48199;SDS011;33990;44.602;10.976;2022-12-07T17:22:14;8.80;;;5.75;;
48199;SDS011;33990;44.602;10.976;2022-12-07T17:24:41;6.18;;;5.57;;
48199;SDS011;33990;44.602;10.976;2022-12-07T17:27:08;6.90;;;5.75;;
48199;SDS011;33990;44.602;10.976;2022-12-07T17:29:36;7.13;;;6.22;;